createdAt,value
2022-12-03T00:01:28.067Z,22.19
2022-12-03T00:03:58.740Z,22.21
2022-12-03T00:06:31.462Z,22.19
2022-12-03T00:09:04.696Z,22.21
2022-12-03T00:11:34.264Z,22.19
2022-12-03T00:14:02.888Z,22.21
2022-12-03T00:16:31.233Z,22.25
2022-12-03T00:19:00.841Z,22.22
2022-12-03T00:21:29.112Z,22.21
2022-12-03T00:23:57.268Z,22.19
2022-12-03T00:26:27.214Z,22.22
2022-12-03T00:28:56.113Z,22.18
2022-12-03T00:31:25.846Z,22.18
2022-12-03T00:33:55.937Z,22.17
2022-12-03T00:36:24.562Z,22.15
2022-12-03T00:38:52.990Z,22.19
2022-12-03T00:41:23.503Z,22.19
2022-12-03T00:43:57.434Z,22.18
2022-12-03T00:46:25.959Z,22.19
2022-12-03T00:48:54.783Z,22.15
2022-12-03T00:51:25.760Z,22.17
2022-12-03T00:53:55.308Z,22.14
2022-12-03T00:56:23.768Z,22.14
2022-12-03T00:58:54.765Z,22.14
2022-12-03T01:01:23.709Z,22.04
2022-12-03T01:03:52.493Z,22.04
2022-12-03T01:06:20.899Z,22.08
2022-12-03T01:08:50.501Z,22.04
2022-12-03T01:11:36.961Z,22.02
2022-12-03T01:14:12.731Z,22.02
2022-12-03T01:16:42.029Z,22.04
2022-12-03T01:19:16.231Z,22.00
2022-12-03T01:21:45.624Z,22.01
2022-12-03T01:24:14.824Z,22.02
2022-12-03T01:26:43.280Z,22.07
2022-12-03T01:29:13.192Z,22.07
2022-12-03T01:31:56.062Z,22.02
2022-12-03T01:34:27.611Z,22.04
2022-12-03T01:36:56.015Z,22.02
2022-12-03T01:39:25.129Z,22.02
2022-12-03T01:41:55.510Z,22.02
2022-12-03T01:44:28.353Z,22.05
2022-12-03T01:47:00.713Z,22.07
2022-12-03T01:49:32.875Z,22.04
2022-12-03T01:52:01.800Z,22.07
2022-12-03T01:54:38.915Z,22.07
2022-12-03T01:57:19.646Z,22.08
2022-12-03T01:59:50.536Z,22.05
2022-12-03T02:02:24.603Z,22.07
2022-12-03T02:04:55.873Z,22.07
2022-12-03T02:07:27.713Z,22.07
2022-12-03T02:09:59.938Z,22.08
2022-12-03T02:12:33.833Z,22.09
2022-12-03T02:15:05.240Z,22.09
2022-12-03T02:17:34.287Z,22.09
2022-12-03T02:20:05.196Z,22.05
2022-12-03T02:22:42.228Z,22.07
2022-12-03T02:25:16.322Z,22.07
2022-12-03T02:27:45.868Z,22.07
2022-12-03T02:30:17.212Z,22.08
2022-12-03T02:32:46.041Z,22.07
2022-12-03T02:35:16.250Z,22.04
2022-12-03T02:37:48.713Z,22.05
2022-12-03T02:40:23.211Z,22.02
2022-12-03T02:42:57.014Z,22.02
2022-12-03T02:45:31.288Z,22.02
2022-12-03T02:48:02.304Z,22.04
2022-12-03T02:50:34.014Z,22.02
2022-12-03T02:53:04.743Z,22.00
2022-12-03T02:55:37.357Z,22.02
2022-12-03T02:58:07.449Z,22.02
2022-12-03T03:00:37.680Z,22.01
2022-12-03T03:03:08.973Z,22.01
2022-12-03T03:05:41.576Z,22.01
2022-12-03T03:08:13.041Z,21.98
2022-12-03T03:10:44.844Z,22.00
2022-12-03T03:13:15.880Z,22.00
2022-12-03T03:15:44.755Z,22.01
2022-12-03T03:18:15.520Z,22.02
2022-12-03T03:20:59.265Z,22.04
2022-12-03T03:23:28.867Z,22.02
2022-12-03T03:26:01.620Z,22.02
2022-12-03T03:28:37.783Z,22.04
2022-12-03T03:31:08.705Z,22.07
2022-12-03T03:33:40.346Z,22.01
2022-12-03T03:36:10.906Z,22.01
2022-12-03T03:38:39.961Z,22.05
2022-12-03T03:41:15.081Z,22.04
2022-12-03T03:43:46.538Z,22.07
2022-12-03T03:46:16.038Z,22.08
2022-12-03T03:48:45.068Z,22.11
2022-12-03T03:51:15.215Z,22.15
2022-12-03T03:53:47.959Z,22.14
2022-12-03T03:56:21.015Z,22.09
2022-12-03T03:58:51.302Z,22.11
2022-12-03T04:01:21.311Z,22.08
2022-12-03T04:03:50.793Z,22.12
2022-12-03T04:06:19.614Z,22.02
2022-12-03T04:08:47.769Z,22.07
2022-12-03T04:11:38.951Z,22.12
2022-12-03T04:14:10.135Z,22.11
2022-12-03T04:16:45.593Z,22.08
2022-12-03T04:19:14.022Z,22.04
2022-12-03T04:21:59.912Z,22.05
2022-12-03T04:24:28.888Z,22.09
2022-12-03T04:27:16.134Z,22.11
2022-12-03T04:29:45.950Z,22.12
2022-12-03T04:32:40.984Z,22.11
2022-12-03T04:38:23.830Z,21.81
2022-12-03T04:41:05.018Z,21.84
2022-12-03T04:43:55.841Z,21.88
2022-12-03T04:46:24.044Z,21.94
2022-12-03T04:48:52.141Z,21.98
2022-12-03T04:51:20.198Z,21.94
2022-12-03T04:53:48.327Z,21.91
2022-12-03T04:56:16.366Z,21.98
2022-12-03T04:58:45.991Z,21.98
2022-12-03T05:01:14.278Z,21.96
2022-12-03T05:03:43.006Z,22.01
2022-12-03T05:06:12.111Z,21.96
2022-12-03T05:08:40.196Z,21.96
2022-12-03T05:11:08.446Z,22.00
2022-12-03T05:13:36.978Z,22.02
2022-12-03T05:16:06.720Z,22.04
2022-12-03T05:18:35.151Z,22.02
2022-12-03T05:21:03.397Z,22.07
2022-12-03T05:23:31.555Z,22.11
2022-12-03T05:25:59.699Z,22.08
2022-12-03T05:28:28.153Z,22.12
2022-12-03T05:30:56.693Z,22.09
2022-12-03T05:33:26.346Z,22.15
2022-12-03T05:35:54.559Z,22.12
2022-12-03T05:38:22.691Z,22.11
2022-12-03T05:40:50.865Z,22.15
2022-12-03T05:43:18.254Z,22.12
2022-12-03T05:45:46.529Z,22.17
2022-12-03T05:48:16.837Z,22.17
2022-12-03T05:50:47.199Z,22.11
2022-12-03T05:53:17.146Z,22.11
2022-12-03T05:55:45.381Z,22.08
2022-12-03T05:58:13.815Z,22.09
2022-12-03T06:00:43.068Z,22.09
2022-12-03T06:03:11.649Z,22.04
2022-12-03T06:05:40.046Z,22.04
2022-12-03T06:08:09.828Z,22.09
2022-12-03T06:11:46.514Z,22.11
2022-12-03T06:14:14.663Z,22.12
2022-12-03T06:16:42.810Z,22.12
2022-12-03T06:19:11.107Z,22.15
2022-12-03T06:21:40.854Z,22.19
2022-12-03T06:24:11.379Z,22.14
2022-12-03T06:26:39.431Z,22.11
2022-12-03T06:29:07.772Z,22.08
2022-12-03T06:31:35.886Z,22.08
2022-12-03T06:34:04.068Z,22.05
2022-12-03T06:36:32.195Z,22.05
2022-12-03T06:39:00.327Z,22.11
2022-12-03T06:41:29.807Z,22.07
2022-12-03T06:43:57.892Z,22.08
2022-12-03T06:46:26.078Z,22.09
2022-12-03T06:48:54.406Z,22.09
2022-12-03T06:51:22.562Z,22.17
2022-12-03T06:53:50.652Z,22.12
2022-12-03T06:56:22.333Z,22.25
2022-12-03T06:58:52.363Z,22.29
2022-12-03T07:01:23.728Z,22.25
2022-12-03T07:03:52.285Z,22.31
2022-12-03T07:06:20.536Z,22.27
2022-12-03T07:08:49.790Z,22.28
2022-12-03T07:11:33.494Z,22.29
2022-12-03T07:14:06.380Z,22.34
2022-12-03T07:16:35.089Z,22.29
2022-12-03T07:19:03.347Z,22.36
2022-12-03T07:21:32.216Z,22.35
2022-12-03T07:24:00.267Z,22.32
2022-12-03T07:26:28.586Z,22.32
2022-12-03T07:28:57.014Z,22.28
2022-12-03T07:31:26.668Z,22.27
2022-12-03T07:33:54.971Z,22.28
2022-12-03T07:36:23.411Z,22.32
2022-12-03T07:38:52.062Z,22.32
2022-12-03T07:41:20.476Z,22.29
2022-12-03T07:43:48.875Z,22.32
2022-12-03T07:46:17.217Z,22.27
2022-12-03T07:48:46.683Z,22.28
2022-12-03T07:51:15.604Z,22.29
2022-12-03T07:53:44.095Z,22.27
2022-12-03T07:56:12.238Z,22.32
2022-12-03T07:58:40.443Z,22.25
2022-12-03T08:01:10.429Z,22.24
2022-12-03T08:03:38.567Z,22.24
2022-12-03T08:06:08.461Z,22.25
2022-12-03T08:08:36.802Z,22.29
2022-12-03T08:11:05.986Z,22.32
2022-12-03T08:13:35.633Z,22.25
2022-12-03T08:16:17.064Z,22.21
2022-12-03T08:18:46.123Z,22.22
2022-12-03T08:21:17.562Z,22.22
2022-12-03T08:23:48.652Z,22.22
2022-12-03T08:26:24.184Z,22.25
2022-12-03T08:28:53.274Z,22.22
2022-12-03T08:31:29.319Z,22.31
2022-12-03T08:34:13.096Z,22.28
2022-12-03T08:36:43.554Z,22.32
2022-12-03T08:39:30.889Z,22.35
2022-12-03T08:42:29.101Z,22.42
2022-12-03T08:45:21.521Z,22.39
2022-12-03T08:47:49.830Z,22.38
2022-12-03T08:50:28.415Z,22.42
2022-12-03T08:53:09.273Z,22.45
2022-12-03T08:55:40.022Z,22.52
2022-12-03T08:58:19.274Z,22.52
2022-12-03T09:00:47.488Z,22.57
2022-12-03T09:03:19.761Z,22.62
2022-12-03T09:05:48.130Z,22.56
2022-12-03T09:08:18.038Z,22.51
2022-12-03T09:10:46.710Z,22.53
2022-12-03T09:13:14.923Z,22.55
2022-12-03T09:15:43.137Z,22.56
2022-12-03T09:18:11.230Z,22.55
2022-12-03T09:20:39.231Z,22.59
2022-12-03T09:23:08.107Z,22.59
2022-12-03T09:25:52.708Z,22.55
2022-12-03T09:28:23.451Z,22.55
2022-12-03T09:30:51.627Z,22.53
2022-12-03T09:33:19.859Z,22.52
2022-12-03T09:35:53.168Z,22.52
2022-12-03T09:38:21.699Z,22.55
2022-12-03T09:40:50.145Z,22.56
2022-12-03T09:43:20.454Z,22.49
2022-12-03T09:45:49.436Z,22.46
2022-12-03T09:48:20.065Z,22.45
2022-12-03T09:50:48.906Z,22.39
2022-12-03T09:53:22.020Z,22.32
2022-12-03T09:55:50.985Z,22.35
2022-12-03T09:58:21.203Z,22.31
2022-12-03T10:00:52.394Z,22.35
2022-12-03T10:03:29.505Z,22.31
2022-12-03T10:05:58.939Z,22.31
2022-12-03T10:08:32.153Z,22.28
2022-12-03T10:11:01.460Z,22.24
2022-12-03T10:13:36.015Z,22.22
2022-12-03T10:16:04.513Z,22.22
2022-12-03T10:18:41.440Z,22.28
2022-12-03T10:21:18.364Z,22.42
2022-12-03T10:23:54.944Z,22.42
2022-12-03T10:26:39.008Z,22.45
2022-12-03T10:29:13.811Z,22.46
2022-12-03T10:31:42.091Z,22.52
2022-12-03T10:34:10.740Z,22.59
2022-12-03T10:36:39.177Z,22.73
2022-12-03T10:39:10.943Z,22.73
2022-12-03T10:41:40.194Z,22.94
2022-12-03T10:44:17.036Z,23.72
2022-12-03T10:46:46.545Z,24.31
2022-12-03T10:49:18.711Z,24.00
2022-12-03T10:51:48.793Z,23.78
2022-12-03T10:54:20.536Z,23.52
2022-12-03T10:56:49.140Z,23.24
2022-12-03T10:59:22.105Z,23.04
2022-12-03T11:01:51.066Z,22.87
2022-12-03T11:04:24.625Z,22.84
2022-12-03T11:06:52.911Z,22.87
2022-12-03T11:09:23.467Z,22.83
2022-12-03T11:11:51.998Z,22.76
2022-12-03T11:15:05.626Z,22.69
2022-12-03T11:17:47.884Z,22.69
2022-12-03T11:21:07.790Z,22.67
2022-12-03T11:24:04.818Z,22.59
2022-12-03T11:27:24.715Z,22.49
2022-12-03T11:30:00.969Z,22.53
2022-12-03T11:33:08.901Z,22.53
2022-12-03T11:36:16.121Z,22.55
2022-12-03T11:38:58.349Z,22.55
2022-12-03T11:41:33.053Z,22.45
2022-12-03T11:44:26.359Z,22.51
2022-12-03T11:46:55.252Z,22.48
2022-12-03T11:49:29.875Z,22.41
2022-12-03T11:51:59.937Z,22.46
2022-12-03T11:54:28.479Z,22.60
2022-12-03T11:56:57.227Z,22.65
2022-12-03T11:59:25.498Z,23.35
2022-12-03T12:01:53.667Z,23.72
2022-12-03T12:04:31.039Z,23.31
2022-12-03T12:07:01.150Z,23.34
2022-12-03T12:09:54.071Z,23.61
2022-12-03T12:12:30.680Z,23.48
2022-12-03T12:14:59.836Z,23.40
2022-12-03T12:17:36.728Z,23.45
2022-12-03T12:20:29.049Z,23.34
2022-12-03T12:23:22.067Z,23.27
2022-12-03T12:25:54.180Z,23.27
2022-12-03T12:28:24.238Z,23.15
2022-12-03T12:30:57.050Z,23.07
2022-12-03T12:33:26.681Z,22.72
2022-12-03T12:35:55.058Z,22.57
2022-12-03T12:38:25.217Z,22.45
2022-12-03T12:40:56.647Z,22.35
2022-12-03T12:43:26.744Z,22.35
2022-12-03T12:45:56.642Z,22.31
2022-12-03T12:48:27.731Z,22.19
2022-12-03T12:51:01.360Z,22.19
2022-12-03T12:53:33.034Z,22.11
2022-12-03T12:56:02.243Z,22.01
2022-12-03T12:58:33.515Z,22.02
2022-12-03T13:01:06.139Z,22.02
2022-12-03T13:03:37.720Z,22.01
2022-12-03T13:06:06.443Z,21.91
2022-12-03T13:08:41.018Z,21.90
2022-12-03T13:11:24.174Z,21.94
2022-12-03T13:13:53.244Z,21.96
2022-12-03T13:16:27.533Z,21.94
2022-12-03T13:18:57.795Z,21.88
2022-12-03T13:21:38.410Z,21.90
2022-12-03T13:24:27.787Z,21.86
2022-12-03T13:26:56.338Z,21.87
2022-12-03T13:29:25.031Z,21.80
2022-12-03T13:31:55.620Z,21.78
2022-12-03T13:34:25.737Z,21.80
2022-12-03T13:36:58.181Z,21.77
2022-12-03T13:39:34.466Z,21.78
2022-12-03T13:42:33.924Z,21.73
2022-12-03T13:45:03.943Z,21.76
2022-12-03T13:47:33.503Z,21.71
2022-12-03T13:50:04.852Z,21.70
2022-12-03T13:52:35.773Z,21.71
2022-12-03T13:55:08.721Z,21.63
2022-12-03T13:57:36.978Z,21.61
2022-12-03T14:00:06.095Z,21.61
2022-12-03T14:02:34.604Z,21.61
2022-12-03T14:05:03.232Z,21.63
2022-12-03T14:07:36.136Z,21.61
2022-12-03T14:10:06.691Z,21.64
2022-12-03T14:12:34.747Z,21.57
2022-12-03T14:15:03.535Z,21.53
2022-12-03T14:17:32.070Z,21.54
2022-12-03T14:20:01.730Z,21.61
2022-12-03T14:22:30.838Z,21.61
2022-12-03T14:24:59.199Z,21.64
2022-12-03T14:27:28.704Z,21.73
2022-12-03T14:29:57.407Z,21.78
2022-12-03T14:32:25.676Z,21.76
2022-12-03T14:34:53.787Z,21.71
2022-12-03T14:37:22.356Z,21.67
2022-12-03T14:39:50.584Z,21.66
2022-12-03T14:42:18.765Z,21.69
2022-12-03T14:44:49.900Z,21.71
2022-12-03T14:47:19.838Z,21.67
2022-12-03T14:49:48.085Z,21.74
2022-12-03T14:52:16.355Z,21.73
2022-12-03T14:54:44.676Z,21.86
2022-12-03T14:57:14.244Z,21.83
2022-12-03T14:59:43.077Z,21.86
2022-12-03T15:02:13.988Z,21.88
2022-12-03T15:04:42.735Z,21.97
2022-12-03T15:07:11.112Z,21.96
2022-12-03T15:09:39.363Z,22.05
2022-12-03T15:12:08.448Z,22.05
2022-12-03T15:14:36.778Z,22.11
2022-12-03T15:17:05.135Z,22.17
2022-12-03T15:19:34.740Z,22.15
2022-12-03T15:22:03.069Z,22.21
2022-12-03T15:24:31.221Z,22.21
2022-12-03T15:26:59.330Z,22.24
2022-12-03T15:29:29.016Z,22.25
2022-12-03T15:31:59.353Z,22.27
2022-12-03T15:34:27.671Z,22.29
2022-12-03T15:36:57.278Z,22.29
2022-12-03T15:39:30.620Z,22.32
2022-12-03T15:41:58.908Z,22.34
2022-12-03T15:44:26.939Z,22.32
2022-12-03T15:46:55.055Z,22.36
2022-12-03T15:49:23.432Z,22.39
2022-12-03T15:51:51.550Z,22.41
2022-12-03T15:54:21.238Z,22.42
2022-12-03T15:56:52.797Z,22.42
2022-12-03T15:59:28.050Z,22.24
2022-12-03T16:01:56.475Z,22.29
2022-12-03T16:04:24.631Z,22.27
2022-12-03T16:06:52.973Z,22.38
2022-12-03T16:09:27.163Z,22.41
2022-12-03T16:11:56.013Z,22.41
2022-12-03T16:14:24.156Z,22.46
2022-12-03T16:16:52.561Z,22.48
2022-12-03T16:19:20.985Z,22.46
2022-12-03T16:21:49.273Z,22.51
2022-12-03T16:24:17.480Z,22.48
2022-12-03T16:26:47.002Z,22.48
2022-12-03T16:29:15.602Z,22.48
2022-12-03T16:31:43.857Z,22.51
2022-12-03T16:34:12.143Z,22.49
2022-12-03T16:36:40.345Z,22.51
2022-12-03T16:39:08.440Z,22.51
2022-12-03T16:41:36.578Z,22.56
2022-12-03T16:44:06.538Z,22.52
2022-12-03T16:46:34.781Z,22.52
2022-12-03T16:49:04.158Z,22.53
2022-12-03T16:51:32.320Z,22.44
2022-12-03T16:54:00.340Z,22.44
2022-12-03T16:56:28.842Z,22.51
2022-12-03T16:58:57.155Z,22.53
2022-12-03T17:01:26.847Z,22.55
2022-12-03T17:03:55.308Z,22.59
2022-12-03T17:06:23.503Z,22.57
2022-12-03T17:08:51.620Z,22.59
2022-12-03T17:11:20.271Z,22.56
2022-12-03T17:13:48.266Z,22.60
2022-12-03T17:16:16.373Z,22.56
2022-12-03T17:18:46.135Z,22.60
2022-12-03T17:21:14.650Z,22.60
2022-12-03T17:23:43.077Z,22.60
2022-12-03T17:26:11.562Z,22.62
2022-12-03T17:28:39.690Z,22.62
2022-12-03T17:31:11.872Z,22.63
2022-12-03T17:33:40.662Z,22.62
2022-12-03T17:36:10.867Z,22.62
2022-12-03T17:38:39.615Z,22.60
2022-12-03T17:41:08.484Z,22.69
2022-12-03T17:43:36.907Z,22.65
2022-12-03T17:46:09.464Z,22.70
2022-12-03T17:48:40.559Z,22.72
2022-12-03T17:51:10.199Z,22.73
2022-12-03T17:53:38.252Z,22.72
2022-12-03T17:56:07.830Z,22.69
2022-12-03T17:58:36.208Z,22.67
2022-12-03T18:01:05.719Z,22.69
2022-12-03T18:03:33.981Z,22.72
2022-12-03T18:06:02.158Z,22.76
2022-12-03T18:08:34.448Z,22.69
2022-12-03T18:11:02.559Z,22.67
2022-12-03T18:13:30.789Z,22.72
2022-12-03T18:15:58.998Z,22.77
2022-12-03T18:18:27.075Z,22.77
2022-12-03T18:20:55.535Z,22.79
2022-12-03T18:23:23.875Z,22.80
2022-12-03T18:25:53.404Z,22.82
2022-12-03T18:28:21.842Z,22.70
2022-12-03T18:30:52.787Z,22.75
2022-12-03T18:33:21.460Z,22.75
2022-12-03T18:35:50.264Z,22.69
2022-12-03T18:38:19.471Z,22.73
2022-12-03T18:40:52.140Z,22.82
2022-12-03T18:43:21.641Z,22.83
2022-12-03T18:45:49.759Z,22.84
2022-12-03T18:48:21.306Z,22.87
2022-12-03T18:50:49.652Z,22.82
2022-12-03T18:53:19.489Z,22.87
2022-12-03T18:55:48.981Z,22.89
2022-12-03T18:58:17.222Z,22.84
2022-12-03T19:00:46.695Z,22.89
2022-12-03T19:03:15.242Z,22.87
2022-12-03T19:05:44.118Z,22.89
2022-12-03T19:08:17.887Z,22.87
2022-12-03T19:10:56.295Z,22.87
2022-12-03T19:13:30.146Z,22.90
2022-12-03T19:16:04.007Z,22.86
2022-12-03T19:18:34.346Z,22.86
2022-12-03T19:21:10.590Z,22.87
2022-12-03T19:23:40.811Z,22.89
2022-12-03T19:26:12.429Z,22.90
2022-12-03T19:28:41.539Z,22.87
2022-12-03T19:31:15.058Z,22.92
2022-12-03T19:33:44.866Z,22.93
2022-12-03T19:36:22.474Z,22.93
2022-12-03T19:38:56.891Z,22.93
2022-12-03T19:41:33.048Z,22.92
2022-12-03T19:44:04.022Z,22.92
2022-12-03T19:46:37.476Z,22.92
2022-12-03T19:49:07.264Z,22.94
2022-12-03T19:51:36.199Z,22.94
2022-12-03T19:54:05.365Z,22.93
2022-12-03T19:56:33.515Z,22.93
2022-12-03T19:59:01.598Z,22.97
2022-12-03T20:01:32.636Z,22.99
2022-12-03T20:04:03.814Z,22.94
2022-12-03T20:06:34.908Z,22.92
2022-12-03T20:09:05.874Z,22.93
2022-12-03T20:11:35.235Z,22.94
2022-12-03T20:14:05.746Z,22.90
2022-12-03T20:16:34.225Z,22.89
2022-12-03T20:19:06.212Z,22.86
2022-12-03T20:21:36.668Z,22.86
2022-12-03T20:24:06.493Z,22.86
2022-12-03T20:26:34.943Z,22.84
2022-12-03T20:29:03.023Z,22.84
2022-12-03T20:31:32.752Z,22.86
2022-12-03T20:34:03.855Z,22.86
2022-12-03T20:36:33.346Z,22.62
2022-12-03T20:39:03.860Z,22.75
2022-12-03T20:41:32.191Z,22.90
2022-12-03T20:44:00.426Z,22.93
2022-12-03T20:46:31.160Z,22.96
2022-12-03T20:48:59.736Z,22.93
2022-12-03T20:51:31.644Z,22.96
2022-12-03T20:54:00.739Z,22.96
2022-12-03T20:56:31.337Z,22.96
2022-12-03T20:59:01.245Z,22.92
2022-12-03T21:01:29.745Z,22.96
2022-12-03T21:03:58.639Z,23.00
2022-12-03T21:06:30.108Z,22.99
2022-12-03T21:08:59.178Z,22.94
2022-12-03T21:11:30.859Z,22.94
2022-12-03T21:14:57.742Z,23.00
2022-12-03T21:17:43.783Z,22.69
2022-12-03T21:20:16.617Z,22.75
2022-12-03T21:22:51.897Z,22.77
2022-12-03T21:25:20.138Z,22.80
2022-12-03T21:27:48.233Z,22.83
2022-12-03T21:30:16.818Z,22.83
2022-12-03T21:32:44.979Z,22.84
2022-12-03T21:35:13.459Z,22.82
2022-12-03T21:37:41.754Z,22.86
2022-12-03T21:40:12.164Z,22.87
2022-12-03T21:42:40.177Z,22.84
2022-12-03T21:45:08.867Z,22.83
2022-12-03T21:47:37.752Z,22.82
2022-12-03T21:50:08.845Z,22.82
2022-12-03T21:52:37.209Z,22.80
2022-12-03T21:55:06.518Z,22.82
2022-12-03T21:57:38.165Z,22.86
2022-12-03T22:00:09.695Z,22.86
2022-12-03T22:02:39.958Z,22.86
2022-12-03T22:05:09.131Z,22.90
2022-12-03T22:07:38.758Z,22.90
2022-12-03T22:10:09.090Z,22.89
2022-12-03T22:12:40.872Z,22.92
2022-12-03T22:15:14.890Z,22.93
2022-12-03T22:17:49.424Z,22.94
2022-12-03T22:20:17.805Z,22.92
2022-12-03T22:22:47.023Z,22.90
2022-12-03T22:25:15.262Z,22.94
2022-12-03T22:27:44.859Z,22.94
2022-12-03T22:30:13.452Z,22.93
2022-12-03T22:32:41.517Z,22.96
2022-12-03T22:35:10.215Z,22.96
2022-12-03T22:37:38.528Z,22.96
2022-12-03T22:40:07.964Z,22.96
2022-12-03T22:42:36.128Z,22.94
2022-12-03T22:45:06.699Z,22.96
2022-12-03T22:47:34.969Z,22.94
2022-12-03T22:50:03.462Z,22.93
2022-12-03T22:52:33.225Z,22.93
2022-12-03T22:55:01.398Z,22.90
2022-12-03T22:57:29.474Z,22.96
2022-12-03T22:59:57.743Z,22.94
2022-12-03T23:02:27.499Z,22.94
2022-12-03T23:04:56.854Z,22.89
2022-12-03T23:07:25.085Z,22.93
2022-12-03T23:09:54.118Z,22.90
2022-12-03T23:12:22.444Z,22.89
2022-12-03T23:14:53.906Z,22.89
2022-12-03T23:17:22.183Z,22.92
2022-12-03T23:19:52.103Z,22.93
2022-12-03T23:22:20.249Z,22.84
2022-12-03T23:24:51.330Z,22.90
2022-12-03T23:27:19.640Z,22.94
2022-12-03T23:29:47.814Z,22.96
2022-12-03T23:32:16.952Z,22.97
2022-12-03T23:34:48.669Z,22.90
2022-12-03T23:37:18.402Z,22.87
2022-12-03T23:39:49.007Z,22.86
2022-12-03T23:42:17.199Z,22.82
2022-12-03T23:44:45.362Z,22.83
2022-12-03T23:47:13.546Z,22.82
2022-12-03T23:49:41.999Z,22.82
2022-12-03T23:52:10.202Z,22.75
2022-12-03T23:54:39.660Z,22.77
2022-12-03T23:57:07.898Z,22.79
2022-12-03T23:59:36.157Z,22.76
